Time;durP1;ratioP1;P1;durP2;ratioP2;P2;SDS_P1;SDS_P2;PMS_P1;PMS_P2;Temp;Humidity;BMP_temperature;BMP_pressure;BME280_temperature;BME280_humidity;BME280_pressure;Samples;Min_cycle;Max_cycle;Signal;HPM_P1;HPM_P2
2022/11/16 00:00:33;;;;;;;65.70;50.53;;;;;;;;;;5032907;28;20384;-74
2022/11/16 00:03:03;;;;;;;67.15;52.08;;;;;;;;;;5032734;28;20126;-75
2022/11/16 00:05:30;;;;;;;68.35;51.90;;;;;;;;;;5032600;28;20096;-72
2022/11/16 00:07:57;;;;;;;61.85;49.00;;;;;;;;;;5032857;28;20539;-72
2022/11/16 00:10:23;;;;;;;56.25;44.50;;;;;;;;;;5032866;28;20111;-74
2022/11/16 00:12:50;;;;;;;51.28;41.10;;;;;;;;;;5032703;28;20026;-74
2022/11/16 00:15:16;;;;;;;51.75;39.58;;;;;;;;;;5032778;28;20468;-72
2022/11/16 00:17:42;;;;;;;51.72;40.63;;;;;;;;;;5032692;28;20115;-75
2022/11/16 00:20:08;;;;;;;54.08;41.15;;;;;;;;;;5032189;28;20076;-74
2022/11/16 00:22:34;;;;;;;55.13;44.15;;;;;;;;;;5019237;28;20488;-74
2022/11/16 00:25:00;;;;;;;59.35;44.47;;;;;;;;;;5032677;28;20513;-71
2022/11/16 00:27:26;;;;;;;66.93;47.53;;;;;;;;;;5018746;28;20377;-73
2022/11/16 00:29:52;;;;;;;66.10;51.30;;;;;;;;;;5031723;28;20491;-74
2022/11/16 00:32:18;;;;;;;63.60;48.05;;;;;;;;;;5032365;28;20420;-75
2022/11/16 00:34:44;;;;;;;53.75;42.10;;;;;;;;;;5032656;28;20044;-72
2022/11/16 00:37:10;;;;;;;52.17;43.13;;;;;;;;;;5032390;28;20030;-75
2022/11/16 00:39:36;;;;;;;55.13;41.67;;;;;;;;;;5032705;28;20379;-74
2022/11/16 00:42:02;;;;;;;54.17;42.97;;;;;;;;;;5032480;28;20030;-71
2022/11/16 00:44:29;;;;;;;54.35;41.97;;;;;;;;;;5032510;28;20467;-72
2022/11/16 00:46:55;;;;;;;50.97;40.15;;;;;;;;;;5032243;28;20387;-71
2022/11/16 00:49:21;;;;;;;50.45;38.20;;;;;;;;;;5032207;28;20029;-75
2022/11/16 00:51:47;;;;;;;49.63;39.15;;;;;;;;;;5033968;28;20025;-74
2022/11/16 00:54:13;;;;;;;49.83;39.15;;;;;;;;;;5036406;28;20026;-71
2022/11/16 00:56:39;;;;;;;55.53;43.30;;;;;;;;;;5036054;28;20099;-74
2022/11/16 00:59:05;;;;;;;56.17;42.97;;;;;;;;;;5035051;28;20099;-71
2022/11/16 01:01:32;;;;;;;71.63;53.70;;;;;;;;;;5035884;28;20049;-74
2022/11/16 01:03:58;;;;;;;64.22;48.17;;;;;;;;;;5036094;28;20033;-74
2022/11/16 01:06:24;;;;;;;62.38;46.40;;;;;;;;;;5036086;28;20494;-77
2022/11/16 01:08:50;;;;;;;60.40;46.47;;;;;;;;;;5036046;28;20033;-75
2022/11/16 01:14:03;;;;;;;52.00;40.42;;;;;;;;;;5035274;28;20096;-74
2022/11/16 01:16:29;;;;;;;58.45;43.67;;;;;;;;;;5036057;28;20025;-75
2022/11/16 01:18:55;;;;;;;57.95;43.85;;;;;;;;;;5031416;28;20018;-75
2022/11/16 01:21:23;;;;;;;58.40;44.75;;;;;;;;;;5026398;28;20468;-75
2022/11/16 01:23:49;;;;;;;51.33;39.42;;;;;;;;;;5035452;28;20479;-74
2022/11/16 01:26:15;;;;;;;191.90;88.63;;;;;;;;;;5035845;28;20100;-74
2022/11/16 01:28:41;;;;;;;141.85;72.30;;;;;;;;;;5035844;28;20033;-75
2022/11/16 01:31:08;;;;;;;181.80;85.20;;;;;;;;;;5035997;28;20075;-74
2022/11/16 01:33:34;;;;;;;224.68;99.13;;;;;;;;;;5036091;28;20029;-71
2022/11/16 01:36:00;;;;;;;107.03;53.70;;;;;;;;;;5035393;28;20017;-74
2022/11/16 01:38:26;;;;;;;88.28;46.33;;;;;;;;;;5035444;28;20037;-74
2022/11/16 01:40:53;;;;;;;97.55;63.60;;;;;;;;;;5035512;28;20022;-75
2022/11/16 01:43:21;;;;;;;75.25;51.53;;;;;;;;;;5034143;28;20033;-75
2022/11/16 01:45:47;;;;;;;83.72;61.60;;;;;;;;;;5035454;28;20029;-75
2022/11/16 01:48:15;;;;;;;97.25;74.75;;;;;;;;;;5035188;28;20028;-77
2022/11/16 01:50:42;;;;;;;115.65;88.32;;;;;;;;;;5035179;28;20038;-74
2022/11/16 01:53:09;;;;;;;128.18;100.43;;;;;;;;;;5035065;28;20032;-76
2022/11/16 01:55:36;;;;;;;131.95;102.78;;;;;;;;;;5035409;28;20028;-74
2022/11/16 01:58:03;;;;;;;132.00;100.90;;;;;;;;;;5035106;28;20030;-75
2022/11/16 02:00:29;;;;;;;126.97;102.18;;;;;;;;;;5035348;28;20025;-75
2022/11/16 02:02:55;;;;;;;127.47;102.80;;;;;;;;;;5033892;28;20496;-71
2022/11/16 02:05:27;;;;;;;133.48;105.47;;;;;;;;;;5034798;28;20025;-74
2022/11/16 02:10:40;;;;;;;124.15;97.45;;;;;;;;;;5034962;28;19971;-74
2022/11/16 02:13:11;;;;;;;131.60;101.28;;;;;;;;;;5035011;28;20025;-73
2022/11/16 02:15:37;;;;;;;140.32;107.93;;;;;;;;;;5034670;28;20101;-73
2022/11/16 02:18:35;;;;;;;147.90;110.65;;;;;;;;;;5034836;28;20075;-70
2022/11/16 02:21:20;;;;;;;139.48;106.82;;;;;;;;;;5032449;28;20120;-75
2022/11/16 02:23:49;;;;;;;146.10;107.20;;;;;;;;;;5032540;28;20049;-74
2022/11/16 02:26:35;;;;;;;136.02;101.80;;;;;;;;;;5032454;28;20036;-74
2022/11/16 02:29:19;;;;;;;134.77;101.82;;;;;;;;;;5032513;28;20022;-75
2022/11/16 02:31:54;;;;;;;131.73;99.25;;;;;;;;;;5032335;28;20073;-74
2022/11/16 02:34:22;;;;;;;130.32;97.25;;;;;;;;;;5032210;28;20044;-75
2022/11/16 02:36:51;;;;;;;132.65;100.72;;;;;;;;;;5032352;28;20033;-75
2022/11/16 02:39:19;;;;;;;123.75;90.75;;;;;;;;;;5031891;28;20033;-72
2022/11/16 02:41:47;;;;;;;111.95;84.13;;;;;;;;;;5032671;28;20104;-74
2022/11/16 02:44:25;;;;;;;113.57;83.30;;;;;;;;;;5031893;28;20052;-74
2022/11/16 02:46:53;;;;;;;103.82;80.70;;;;;;;;;;5032347;28;20065;-74
2022/11/16 02:49:19;;;;;;;105.93;80.28;;;;;;;;;;5029191;28;20593;-75
2022/11/16 02:51:46;;;;;;;97.05;79.78;;;;;;;;;;5030809;28;20140;-74
2022/11/16 02:54:19;;;;;;;102.30;81.28;;;;;;;;;;5031997;28;20039;-74
2022/11/16 02:56:45;;;;;;;103.63;79.47;;;;;;;;;;5025708;28;20042;-75
2022/11/16 02:59:12;;;;;;;99.82;79.82;;;;;;;;;;5034004;28;20022;-73
2022/11/16 03:01:40;;;;;;;92.80;75.47;;;;;;;;;;5033943;28;20399;-74
2022/11/16 03:04:11;;;;;;;114.13;80.28;;;;;;;;;;5034035;28;20033;-71
2022/11/16 03:06:40;;;;;;;107.72;73.60;;;;;;;;;;5033828;28;20025;-73
2022/11/16 03:09:08;;;;;;;93.30;54.53;;;;;;;;;;5033768;28;20023;-74
2022/11/16 03:14:24;;;;;;;73.55;45.67;;;;;;;;;;5025566;28;20396;-71
2022/11/16 03:16:52;;;;;;;41.20;31.90;;;;;;;;;;5028983;28;20096;-74
2022/11/16 03:19:25;;;;;;;39.47;31.42;;;;;;;;;;5033409;28;20036;-74
2022/11/16 03:21:55;;;;;;;43.78;31.83;;;;;;;;;;5033657;28;20104;-74
2022/11/16 03:24:21;;;;;;;42.97;30.00;;;;;;;;;;5033385;28;20049;-74
2022/11/16 03:26:59;;;;;;;37.22;28.02;;;;;;;;;;5033422;28;20021;-74
2022/11/16 03:29:28;;;;;;;30.00;23.92;;;;;;;;;;5033677;28;20053;-74
2022/11/16 03:31:56;;;;;;;31.65;24.42;;;;;;;;;;5033102;28;20030;-74
2022/11/16 03:34:25;;;;;;;30.50;24.65;;;;;;;;;;5033299;28;20029;-72
2022/11/16 03:36:52;;;;;;;31.48;25.48;;;;;;;;;;5033218;28;20092;-74
2022/11/16 03:39:21;;;;;;;32.85;25.17;;;;;;;;;;5033323;28;20018;-74
2022/11/16 03:41:48;;;;;;;31.08;25.10;;;;;;;;;;5033185;28;20037;-74
2022/11/16 03:44:15;;;;;;;33.20;26.55;;;;;;;;;;5033238;28;20519;-77
2022/11/16 03:46:42;;;;;;;38.53;26.23;;;;;;;;;;5032983;28;20029;-74
2022/11/16 03:49:08;;;;;;;37.45;26.48;;;;;;;;;;5033268;28;20018;-76
2022/11/16 03:51:34;;;;;;;34.28;24.88;;;;;;;;;;5032925;28;20097;-76
2022/11/16 03:54:00;;;;;;;35.30;26.85;;;;;;;;;;5032015;28;20018;-77
2022/11/16 03:56:26;;;;;;;56.40;35.75;;;;;;;;;;5033309;28;20021;-74
2022/11/16 03:58:52;;;;;;;43.05;30.30;;;;;;;;;;5033112;28;20029;-75
2022/11/16 04:01:18;;;;;;;79.93;45.33;;;;;;;;;;5032615;28;20042;-74
2022/11/16 04:03:44;;;;;;;72.45;43.70;;;;;;;;;;5031826;28;20044;-77
2022/11/16 04:25:43;;;;;;;41.95;30.83;;;;;;;;;;5049841;28;20415;-74
2022/11/16 04:28:13;;;;;;;33.78;22.42;;;;;;;;;;5033655;28;20033;-75
2022/11/16 04:38:54;;;;;;;40.03;25.95;;;;;;;;;;5050457;28;20043;-74
2022/11/16 04:44:05;;;;;;;40.20;27.88;;;;;;;;;;5050128;28;20052;-75
2022/11/16 04:49:15;;;;;;;35.85;23.63;;;;;;;;;;5028729;28;20510;-74
2022/11/16 04:51:42;;;;;;;36.75;24.10;;;;;;;;;;5032424;28;20021;-75
2022/11/16 04:54:08;;;;;;;27.98;21.70;;;;;;;;;;5032686;28;20021;-75
2022/11/16 04:56:34;;;;;;;27.20;20.80;;;;;;;;;;5030152;28;20026;-74
2022/11/16 04:59:00;;;;;;;26.35;20.42;;;;;;;;;;5020794;28;20025;-75
2022/11/16 05:04:11;;;;;;;22.20;17.10;;;;;;;;;;5032813;28;20044;-75
2022/11/16 05:06:37;;;;;;;21.77;16.70;;;;;;;;;;5031956;28;20105;-75
2022/11/16 05:09:03;;;;;;;30.85;23.00;;;;;;;;;;5032257;28;20029;-74
2022/11/16 05:11:29;;;;;;;28.25;20.75;;;;;;;;;;5030968;28;20029;-74
2022/11/16 05:13:55;;;;;;;29.45;20.08;;;;;;;;;;5032142;28;20491;-77
2022/11/16 05:16:21;;;;;;;31.23;24.55;;;;;;;;;;5032076;28;20468;-74
2022/11/16 05:20:59;;;;;;;25.58;18.48;;;;;;;;;;5030941;28;20582;-74
2022/11/16 05:21:33;;;;;;;22.67;17.98;;;;;;;;;;5032173;28;20026;-74
2022/11/16 05:26:44;;;;;;;17.55;15.00;;;;;;;;;;5032299;28;20164;-75
2022/11/16 05:29:10;;;;;;;22.90;16.60;;;;;;;;;;5032114;28;20022;-76
2022/11/16 05:31:36;;;;;;;35.05;30.08;;;;;;;;;;5032240;28;20080;-75
2022/11/16 05:34:02;;;;;;;48.13;39.55;;;;;;;;;;5031871;28;20369;-71
2022/11/16 05:36:29;;;;;;;29.83;24.10;;;;;;;;;;5031906;28;20025;-76
2022/11/16 05:38:55;;;;;;;33.50;26.80;;;;;;;;;;5033757;28;20127;-75
2022/11/16 05:41:21;;;;;;;27.98;22.55;;;;;;;;;;5034469;28;20021;-74
2022/11/16 05:43:47;;;;;;;32.17;25.70;;;;;;;;;;5035412;28;20376;-74
2022/11/16 05:46:13;;;;;;;44.38;33.05;;;;;;;;;;5034259;28;20460;-71
2022/11/16 05:48:39;;;;;;;50.53;37.60;;;;;;;;;;5035242;28;20048;-75
2022/11/16 05:51:05;;;;;;;37.83;29.02;;;;;;;;;;5035436;28;20434;-73
2022/11/16 05:53:31;;;;;;;32.13;24.85;;;;;;;;;;5035312;28;20526;-74
2022/11/16 05:55:57;;;;;;;43.72;32.58;;;;;;;;;;5035470;28;20535;-73
2022/11/16 05:58:23;;;;;;;42.75;32.50;;;;;;;;;;5035217;28;20053;-74
2022/11/16 06:00:50;;;;;;;46.17;33.85;;;;;;;;;;5035421;28;20041;-74
2022/11/16 06:03:16;;;;;;;46.70;35.42;;;;;;;;;;5034962;28;20033;-73
2022/11/16 06:05:42;;;;;;;48.20;36.15;;;;;;;;;;5034912;28;20056;-73
2022/11/16 06:08:08;;;;;;;135.00;83.90;;;;;;;;;;5033865;28;20029;-73
2022/11/16 06:10:35;;;;;;;89.72;65.22;;;;;;;;;;5034978;28;20060;-75
2022/11/16 06:13:01;;;;;;;116.43;76.45;;;;;;;;;;5034997;28;20029;-76
2022/11/16 06:15:28;;;;;;;55.33;38.53;;;;;;;;;;5034776;28;20491;-74
2022/11/16 06:17:54;;;;;;;62.38;41.78;;;;;;;;;;5034843;28;20029;-74
2022/11/16 06:20:20;;;;;;;75.32;51.10;;;;;;;;;;5035054;28;20089;-72
2022/11/16 06:22:46;;;;;;;69.93;52.03;;;;;;;;;;5034577;28;20029;-75
2022/11/16 06:25:12;;;;;;;64.95;48.03;;;;;;;;;;5034772;28;20025;-74
2022/11/16 06:27:41;;;;;;;69.07;49.90;;;;;;;;;;5034718;28;20053;-75
2022/11/16 06:30:07;;;;;;;68.53;46.90;;;;;;;;;;5033363;28;20186;-75
2022/11/16 06:32:33;;;;;;;52.55;41.97;;;;;;;;;;5033176;28;20488;-75
2022/11/16 06:34:59;;;;;;;57.47;38.45;;;;;;;;;;5034623;28;20456;-75
2022/11/16 06:37:25;;;;;;;48.58;35.10;;;;;;;;;;5034325;28;20372;-74
2022/11/16 06:39:51;;;;;;;49.10;36.63;;;;;;;;;;5034512;28;20100;-71
2022/11/16 06:42:17;;;;;;;61.05;40.28;;;;;;;;;;5034343;28;20383;-72
2022/11/16 06:44:43;;;;;;;48.47;36.00;;;;;;;;;;5034498;28;20025;-74
2022/11/16 06:47:10;;;;;;;45.72;36.22;;;;;;;;;;5034354;28;20021;-77
2022/11/16 06:49:36;;;;;;;50.30;34.80;;;;;;;;;;5033471;28;20373;-73
2022/11/16 06:52:02;;;;;;;43.92;34.25;;;;;;;;;;5034310;28;20642;-71
2022/11/16 06:54:28;;;;;;;54.08;36.13;;;;;;;;;;5034216;28;20476;-75
2022/11/16 06:56:54;;;;;;;53.90;40.70;;;;;;;;;;5034016;28;20026;-75
2022/11/16 06:59:20;;;;;;;67.57;48.05;;;;;;;;;;5034101;28;20036;-74
2022/11/16 07:01:46;;;;;;;71.40;54.08;;;;;;;;;;5033695;28;20160;-74
2022/11/16 07:04:12;;;;;;;81.45;56.10;;;;;;;;;;5033973;28;20045;-77
2022/11/16 07:06:38;;;;;;;75.07;54.35;;;;;;;;;;5033621;28;20029;-77
2022/11/16 07:09:08;;;;;;;84.30;57.35;;;;;;;;;;5034221;28;20446;-76
2022/11/16 07:11:34;;;;;;;81.00;59.08;;;;;;;;;;5033735;28;20021;-75
2022/11/16 07:14:01;;;;;;;81.20;60.67;;;;;;;;;;5033725;28;20383;-74
2022/11/16 07:16:27;;;;;;;82.28;57.50;;;;;;;;;;5033886;28;20025;-75
2022/11/16 07:18:55;;;;;;;99.18;73.75;;;;;;;;;;5033608;28;20427;-76
2022/11/16 07:21:21;;;;;;;104.95;79.72;;;;;;;;;;5033482;28;20053;-75
2022/11/16 07:23:47;;;;;;;118.90;88.70;;;;;;;;;;5033845;28;20128;-75
2022/11/16 07:26:13;;;;;;;116.10;91.35;;;;;;;;;;5033942;28;20028;-76
2022/11/16 07:28:39;;;;;;;117.20;90.55;;;;;;;;;;5033513;28;20060;-76
2022/11/16 07:31:10;;;;;;;120.43;91.40;;;;;;;;;;5033800;28;20060;-76
2022/11/16 07:33:36;;;;;;;127.22;96.65;;;;;;;;;;5033545;28;20040;-76
2022/11/16 07:36:03;;;;;;;153.07;130.48;;;;;;;;;;5027887;28;20487;-75
2022/11/16 07:38:30;;;;;;;155.00;127.70;;;;;;;;;;5025040;28;20108;-75
2022/11/16 07:41:00;;;;;;;142.30;111.93;;;;;;;;;;5033406;28;20020;-75
2022/11/16 07:43:28;;;;;;;135.82;110.07;;;;;;;;;;5033180;28;20503;-72
2022/11/16 07:45:57;;;;;;;135.25;107.55;;;;;;;;;;5033170;28;20037;-77
2022/11/16 07:48:23;;;;;;;148.52;112.10;;;;;;;;;;5033159;28;20071;-73
2022/11/16 07:50:49;;;;;;;145.18;114.53;;;;;;;;;;5033074;28;20392;-76
2022/11/16 07:53:15;;;;;;;135.98;111.35;;;;;;;;;;5033002;28;20021;-77
2022/11/16 07:55:41;;;;;;;142.57;120.80;;;;;;;;;;5033118;28;20130;-76
2022/11/16 07:58:07;;;;;;;151.07;114.22;;;;;;;;;;5033049;28;20033;-77
2022/11/16 08:00:33;;;;;;;142.20;111.28;;;;;;;;;;5032783;28;20368;-77
2022/11/16 08:03:00;;;;;;;147.05;113.78;;;;;;;;;;5032668;28;20381;-77
2022/11/16 08:05:26;;;;;;;141.95;113.35;;;;;;;;;;5032792;28;20484;-76
2022/11/16 08:07:52;;;;;;;142.30;116.88;;;;;;;;;;5032887;28;20092;-77
2022/11/16 08:10:18;;;;;;;191.63;145.10;;;;;;;;;;5032930;28;20017;-75
2022/11/16 08:12:44;;;;;;;156.30;125.35;;;;;;;;;;5031897;28;20584;-74
2022/11/16 08:15:10;;;;;;;174.25;138.93;;;;;;;;;;5031675;28;20396;-76
2022/11/16 08:17:37;;;;;;;173.90;134.95;;;;;;;;;;5032729;28;20032;-72
2022/11/16 08:20:03;;;;;;;173.73;132.90;;;;;;;;;;5032670;28;20025;-72
2022/11/16 08:22:29;;;;;;;187.43;139.35;;;;;;;;;;5032463;28;20021;-73
2022/11/16 08:24:55;;;;;;;179.05;138.57;;;;;;;;;;5032782;28;20029;-75
2022/11/16 08:27:22;;;;;;;169.93;127.97;;;;;;;;;;5031587;28;20033;-74
2022/11/16 08:29:49;;;;;;;150.95;117.78;;;;;;;;;;5032440;28;20519;-77
2022/11/16 08:32:15;;;;;;;158.20;121.60;;;;;;;;;;5032606;28;20034;-74
2022/11/16 08:34:41;;;;;;;161.40;125.75;;;;;;;;;;5032586;28;20025;-75
2022/11/16 08:37:07;;;;;;;168.55;132.25;;;;;;;;;;5032151;28;20044;-73
2022/11/16 08:39:33;;;;;;;192.73;135.32;;;;;;;;;;5032452;28;20022;-75
2022/11/16 08:41:59;;;;;;;188.02;138.38;;;;;;;;;;5032875;28;20036;-75
2022/11/16 08:44:25;;;;;;;200.25;140.20;;;;;;;;;;5032158;28;20550;-75
2022/11/16 08:46:51;;;;;;;204.57;149.07;;;;;;;;;;5032545;28;20043;-75
2022/11/16 08:49:17;;;;;;;212.07;158.98;;;;;;;;;;5032284;28;20029;-75
2022/11/16 08:51:43;;;;;;;202.18;151.70;;;;;;;;;;5031280;28;20014;-72
2022/11/16 08:54:09;;;;;;;258.17;168.18;;;;;;;;;;5032356;28;20040;-74
2022/11/16 08:56:35;;;;;;;216.05;150.73;;;;;;;;;;5032153;28;20018;-74
2022/11/16 08:59:01;;;;;;;278.65;182.00;;;;;;;;;;5032847;28;20029;-73
2022/11/16 09:01:29;;;;;;;265.27;178.77;;;;;;;;;;5031892;28;20092;-76
2022/11/16 09:03:55;;;;;;;173.25;129.73;;;;;;;;;;5032329;28;20040;-77
2022/11/16 09:06:22;;;;;;;169.82;122.85;;;;;;;;;;5031303;28;20087;-77
2022/11/16 09:08:48;;;;;;;170.25;127.55;;;;;;;;;;5032324;28;20017;-76
2022/11/16 09:11:15;;;;;;;158.63;120.10;;;;;;;;;;5032229;28;20476;-77
2022/11/16 09:13:42;;;;;;;151.10;118.50;;;;;;;;;;5035168;28;20104;-74
2022/11/16 09:16:09;;;;;;;141.50;107.20;;;;;;;;;;5036091;28;20022;-75
2022/11/16 09:18:35;;;;;;;133.27;107.40;;;;;;;;;;5036048;28;20022;-75
2022/11/16 09:21:01;;;;;;;141.98;109.15;;;;;;;;;;5034742;28;20423;-77
2022/11/16 09:23:27;;;;;;;161.40;107.82;;;;;;;;;;5035742;28;20392;-77
2022/11/16 09:25:54;;;;;;;164.98;114.65;;;;;;;;;;5035853;28;20135;-76
2022/11/16 09:28:21;;;;;;;193.52;132.00;;;;;;;;;;5035917;28;20026;-77
2022/11/16 09:30:48;;;;;;;192.07;137.55;;;;;;;;;;5035817;28;20387;-76
2022/11/16 09:33:14;;;;;;;189.40;137.30;;;;;;;;;;5035722;28;20431;-76
2022/11/16 09:35:40;;;;;;;177.70;136.32;;;;;;;;;;5035712;28;20108;-76
2022/11/16 09:38:08;;;;;;;177.40;133.73;;;;;;;;;;5035485;28;20021;-76
2022/11/16 09:40:36;;;;;;;177.20;132.55;;;;;;;;;;5035650;28;20033;-76
2022/11/16 09:43:22;;;;;;;158.20;120.65;;;;;;;;;;5035415;28;20042;-75
2022/11/16 09:46:12;;;;;;;219.70;178.80;;;;;;;;;;5033162;28;20038;-76
2022/11/16 09:48:39;;;;;;;161.88;117.38;;;;;;;;;;5004519;28;20117;-75
2022/11/16 09:51:07;;;;;;;143.85;114.40;;;;;;;;;;5030420;28;20044;-77
2022/11/16 09:53:46;;;;;;;161.57;122.50;;;;;;;;;;5033095;28;20117;-75
2022/11/16 09:56:23;;;;;;;197.43;148.90;;;;;;;;;;5033077;28;20033;-73
2022/11/16 09:58:59;;;;;;;187.52;133.55;;;;;;;;;;5033276;28;20048;-73
2022/11/16 10:01:27;;;;;;;201.20;153.25;;;;;;;;;;5032632;28;20049;-76
2022/11/16 10:04:00;;;;;;;161.73;125.35;;;;;;;;;;5033066;28;20422;-77
2022/11/16 10:06:46;;;;;;;145.65;114.85;;;;;;;;;;5033059;28;20099;-77
2022/11/16 10:09:12;;;;;;;166.75;118.40;;;;;;;;;;5032810;28;20041;-73
2022/11/16 10:11:51;;;;;;;156.32;120.80;;;;;;;;;;5032632;28;20476;-76
2022/11/16 10:14:20;;;;;;;169.68;121.15;;;;;;;;;;5024906;28;20026;-73
2022/11/16 10:16:55;;;;;;;372.65;297.20;;;;;;;;;;5027392;28;20033;-76
2022/11/16 10:19:48;;;;;;;238.73;191.15;;;;;;;;;;5032932;28;20133;-76
2022/11/16 10:22:33;;;;;;;187.93;151.80;;;;;;;;;;5030577;28;20033;-75
2022/11/16 10:25:00;;;;;;;132.55;101.88;;;;;;;;;;5032437;28;20119;-75
2022/11/16 10:27:44;;;;;;;133.93;105.68;;;;;;;;;;5034618;28;20476;-76
2022/11/16 10:30:17;;;;;;;144.07;107.75;;;;;;;;;;5034801;28;20045;-72
2022/11/16 10:32:46;;;;;;;109.13;86.93;;;;;;;;;;5034817;28;20025;-75
2022/11/16 10:35:15;;;;;;;90.97;75.45;;;;;;;;;;5034842;28;20026;-73
2022/11/16 10:37:46;;;;;;;95.03;78.35;;;;;;;;;;5034167;28;20025;-76
2022/11/16 10:40:16;;;;;;;87.47;70.47;;;;;;;;;;5034515;28;20491;-75
2022/11/16 10:42:42;;;;;;;82.70;65.97;;;;;;;;;;5033992;28;20029;-75
2022/11/16 10:45:15;;;;;;;88.63;65.68;;;;;;;;;;5033120;28;20032;-71
2022/11/16 10:47:57;;;;;;;92.35;74.00;;;;;;;;;;5034097;28;20032;-74
2022/11/16 10:50:31;;;;;;;87.47;71.95;;;;;;;;;;5034113;28;20033;-75
2022/11/16 10:52:57;;;;;;;82.97;64.72;;;;;;;;;;5033868;28;20032;-75
2022/11/16 10:55:24;;;;;;;89.60;70.05;;;;;;;;;;5034044;28;20032;-75
2022/11/16 10:57:57;;;;;;;104.40;72.60;;;;;;;;;;5033810;28;20079;-73
2022/11/16 11:00:37;;;;;;;85.78;63.42;;;;;;;;;;5033986;28;20026;-76
2022/11/16 11:03:03;;;;;;;93.20;64.22;;;;;;;;;;5033733;28;20048;-76
2022/11/16 11:05:29;;;;;;;108.00;79.53;;;;;;;;;;5034016;28;20021;-76
2022/11/16 11:08:11;;;;;;;111.10;82.63;;;;;;;;;;5033653;28;20017;-73
2022/11/16 11:10:37;;;;;;;;;;;;;;;;;;5033859;28;20026;-76
2022/11/16 11:13:09;;;;;;;107.13;82.97;;;;;;;;;;5033957;28;19905;-76
2022/11/16 11:15:36;;;;;;;116.65;85.18;;;;;;;;;;5032244;28;20416;-76
2022/11/16 11:18:20;;;;;;;120.85;84.78;;;;;;;;;;5033899;28;20032;-77
2022/11/16 11:20:51;;;;;;;117.38;88.45;;;;;;;;;;5033579;28;20026;-76
2022/11/16 11:23:21;;;;;;;101.65;74.88;;;;;;;;;;5033447;28;20030;-76
2022/11/16 11:25:50;;;;;;;106.50;77.97;;;;;;;;;;5033369;28;20021;-77
2022/11/16 11:28:16;;;;;;;87.68;69.25;;;;;;;;;;5033791;28;20391;-76
2022/11/16 11:30:51;;;;;;;91.82;71.53;;;;;;;;;;5033417;28;20259;-77
2022/11/16 11:33:19;;;;;;;108.35;77.78;;;;;;;;;;5033431;28;20025;-75
2022/11/16 11:35:56;;;;;;;95.05;76.00;;;;;;;;;;5033533;28;20021;-77
2022/11/16 11:38:22;;;;;;;101.35;76.88;;;;;;;;;;5033423;28;20029;-75
2022/11/16 11:40:56;;;;;;;102.50;74.15;;;;;;;;;;5033135;28;20032;-77
2022/11/16 11:43:23;;;;;;;101.55;73.38;;;;;;;;;;5033319;28;20041;-76
2022/11/16 11:45:53;;;;;;;112.70;85.25;;;;;;;;;;5033299;28;20113;-76
2022/11/16 11:48:22;;;;;;;99.60;76.78;;;;;;;;;;5033237;28;20037;-74
2022/11/16 11:50:51;;;;;;;88.95;71.30;;;;;;;;;;5033071;28;20026;-77
2022/11/16 11:53:17;;;;;;;101.40;74.18;;;;;;;;;;5033031;28;20382;-76
2022/11/16 11:55:43;;;;;;;114.90;81.55;;;;;;;;;;5033163;28;20048;-77
2022/11/16 11:58:15;;;;;;;108.25;79.35;;;;;;;;;;5032704;28;20095;-73
2022/11/16 12:01:02;;;;;;;110.68;79.38;;;;;;;;;;5033188;28;20040;-77
2022/11/16 12:03:43;;;;;;;95.43;66.60;;;;;;;;;;5032757;28;20041;-75
2022/11/16 12:06:50;;;;;;;103.57;75.72;;;;;;;;;;5032899;28;20488;-75
2022/11/16 12:09:16;;;;;;;95.13;69.15;;;;;;;;;;5030342;28;20085;-77
2022/11/16 12:12:05;;;;;;;92.85;70.15;;;;;;;;;;5030865;28;20029;-77
2022/11/16 12:14:49;;;;;;;97.13;72.68;;;;;;;;;;4952378;28;20040;-77
2022/11/16 12:17:33;;;;;;;96.30;69.72;;;;;;;;;;4952379;28;20046;-76
2022/11/16 12:20:06;;;;;;;86.50;68.43;;;;;;;;;;4952576;28;20070;-76
2022/11/16 12:22:50;;;;;;;100.63;68.57;;;;;;;;;;4952541;28;20019;-76
2022/11/16 12:25:31;;;;;;;95.90;67.38;;;;;;;;;;4952558;28;20113;-76
2022/11/16 12:28:06;;;;;;;90.70;66.70;;;;;;;;;;4952343;28;20035;-77
2022/11/16 12:30:34;;;;;;;93.00;68.60;;;;;;;;;;4952229;28;20039;-76
2022/11/16 12:33:20;;;;;;;110.97;73.07;;;;;;;;;;4952308;28;20110;-77
2022/11/16 12:35:53;;;;;;;105.10;72.97;;;;;;;;;;4952447;28;20023;-75
2022/11/16 12:38:27;;;;;;;104.03;75.72;;;;;;;;;;4952331;28;20533;-76
2022/11/16 12:41:11;;;;;;;95.65;72.70;;;;;;;;;;4955126;28;20039;-75
2022/11/16 12:43:56;;;;;;;102.40;76.55;;;;;;;;;;4971687;28;20063;-77
2022/11/16 12:46:45;;;;;;;107.20;79.63;;;;;;;;;;4958416;28;20458;-76
2022/11/16 12:49:28;;;;;;;105.53;78.15;;;;;;;;;;4957371;28;20027;-73
2022/11/16 12:52:09;;;;;;;110.05;84.25;;;;;;;;;;5015381;28;20042;-73
2022/11/16 12:54:54;;;;;;;111.10;84.03;;;;;;;;;;5036559;28;20091;-76
2022/11/16 12:57:33;;;;;;;105.45;84.20;;;;;;;;;;5036516;28;20037;-77
2022/11/16 13:00:07;;;;;;;106.80;88.45;;;;;;;;;;5035973;28;20075;-75
2022/11/16 13:02:43;;;;;;;130.23;101.25;;;;;;;;;;5034951;28;20452;-77
2022/11/16 13:05:15;;;;;;;130.40;103.10;;;;;;;;;;5036099;28;20037;-76
2022/11/16 13:07:47;;;;;;;134.07;106.13;;;;;;;;;;5036170;28;20048;-78
2022/11/16 13:10:16;;;;;;;132.95;102.93;;;;;;;;;;5036052;28;20128;-76
2022/11/16 13:12:43;;;;;;;114.10;89.80;;;;;;;;;;5036263;28;20383;-77
2022/11/16 13:15:17;;;;;;;120.43;95.30;;;;;;;;;;5035998;28;20057;-77
2022/11/16 13:17:46;;;;;;;126.20;100.82;;;;;;;;;;5034676;28;20495;-76
2022/11/16 13:20:31;;;;;;;136.20;108.45;;;;;;;;;;5035561;28;20065;-77
2022/11/16 13:23:03;;;;;;;152.77;117.68;;;;;;;;;;5035778;28;20461;-77
2022/11/16 13:25:32;;;;;;;145.90;116.90;;;;;;;;;;5034426;28;20025;-77
2022/11/16 13:28:18;;;;;;;142.70;119.18;;;;;;;;;;5027230;28;20052;-74
2022/11/16 13:30:54;;;;;;;152.25;125.13;;;;;;;;;;5033268;28;20430;-74
2022/11/16 13:33:27;;;;;;;149.30;119.38;;;;;;;;;;5035427;28;20072;-74
2022/11/16 13:35:53;;;;;;;153.52;123.88;;;;;;;;;;5035641;28;20491;-76
2022/11/16 13:38:38;;;;;;;160.23;124.85;;;;;;;;;;5035573;28;20377;-76
2022/11/16 13:41:23;;;;;;;166.95;131.25;;;;;;;;;;5034121;28;20032;-76
2022/11/16 13:43:49;;;;;;;164.82;130.60;;;;;;;;;;5035485;28;20388;-75
2022/11/16 13:46:16;;;;;;;197.43;159.23;;;;;;;;;;5035495;28;20017;-77
2022/11/16 13:48:43;;;;;;;184.77;152.90;;;;;;;;;;5035191;28;20029;-77
2022/11/16 13:51:18;;;;;;;189.63;148.88;;;;;;;;;;5035732;28;20456;-78
2022/11/16 13:53:51;;;;;;;177.55;147.18;;;;;;;;;;5035430;28;20021;-75
2022/11/16 13:56:18;;;;;;;181.02;142.38;;;;;;;;;;5034550;28;20037;-75
2022/11/16 13:58:48;;;;;;;181.32;147.30;;;;;;;;;;5020176;28;20029;-75
2022/11/16 14:01:15;;;;;;;202.75;160.23;;;;;;;;;;5035049;28;20171;-75
2022/11/16 14:03:44;;;;;;;193.68;160.98;;;;;;;;;;5034894;28;20050;-75
2022/11/16 14:06:19;;;;;;;211.32;174.07;;;;;;;;;;5035116;28;20021;-75
2022/11/16 14:08:54;;;;;;;227.40;189.70;;;;;;;;;;5034948;28;20014;-75
2022/11/16 14:11:27;;;;;;;247.38;203.70;;;;;;;;;;5034983;28;20022;-76
2022/11/16 14:13:53;;;;;;;244.40;204.25;;;;;;;;;;5034914;28;20028;-77
2022/11/16 14:16:20;;;;;;;243.93;210.40;;;;;;;;;;5033674;28;20540;-77
2022/11/16 14:18:50;;;;;;;237.00;199.65;;;;;;;;;;5034819;28;20024;-77
2022/11/16 14:21:19;;;;;;;242.20;199.00;;;;;;;;;;5034865;28;20024;-75
2022/11/16 14:23:48;;;;;;;198.40;162.68;;;;;;;;;;5034490;28;20080;-74
2022/11/16 14:26:33;;;;;;;350.15;276.90;;;;;;;;;;5034476;28;20075;-75
2022/11/16 14:28:59;;;;;;;296.90;248.27;;;;;;;;;;5034664;28;20029;-75
2022/11/16 14:31:27;;;;;;;274.52;233.10;;;;;;;;;;5034801;28;20025;-75
2022/11/16 14:33:55;;;;;;;260.27;219.75;;;;;;;;;;5034494;28;20038;-75
2022/11/16 14:36:42;;;;;;;279.90;230.27;;;;;;;;;;5034513;28;20044;-74
2022/11/16 14:39:28;;;;;;;105.55;79.78;;;;;;;;;;5033095;28;20021;-75
2022/11/16 14:41:57;;;;;;;95.95;71.38;;;;;;;;;;5034376;28;20492;-76
2022/11/16 14:44:26;;;;;;;93.32;68.07;;;;;;;;;;5034052;28;20033;-73
2022/11/16 14:46:52;;;;;;;73.43;52.40;;;;;;;;;;5033108;28;20047;-75
2022/11/16 14:49:20;;;;;;;65.25;49.72;;;;;;;;;;5034245;28;20022;-74
2022/11/16 14:51:48;;;;;;;52.08;39.90;;;;;;;;;;5034301;28;20044;-75
2022/11/16 14:54:26;;;;;;;46.88;34.30;;;;;;;;;;5034256;28;20026;-75
2022/11/16 14:57:03;;;;;;;51.33;35.25;;;;;;;;;;5034216;28;20017;-75
2022/11/16 14:59:30;;;;;;;53.10;40.08;;;;;;;;;;5034073;28;20465;-77
2022/11/16 15:01:56;;;;;;;132.35;95.60;;;;;;;;;;5033879;28;20127;-77
2022/11/16 15:04:24;;;;;;;174.43;137.30;;;;;;;;;;5033794;28;20048;-77
2022/11/16 15:06:53;;;;;;;133.93;102.60;;;;;;;;;;5033181;28;20391;-77